Time;durP1;ratioP1;P1;durP2;ratioP2;P2;SDS_P1;SDS_P2;PMS_P1;PMS_P2;Temp;Humidity;BMP_temperature;BMP_pressure;BME280_temperature;BME280_humidity;BME280_pressure;Samples;Min_cycle;Max_cycle;Signal;HPM_P1;HPM_P2
2023/04/17 00:01:37;;;;;;;100.50;45.80;;;7.90;99.90;;;;;;5004278;28;20037;-80
2023/04/17 00:04:03;;;;;;;102.33;44.10;;;7.90;99.90;;;;;;5002031;28;20038;-81
2023/04/17 00:06:32;;;;;;;89.47;42.63;;;7.90;99.90;;;;;;5028670;28;20041;-80
2023/04/17 00:08:58;;;;;;;94.90;43.30;;;7.90;99.90;;;;;;5015176;28;20065;-81
2023/04/17 00:11:25;;;;;;;98.07;43.47;;;7.90;99.90;;;;;;5009846;28;20037;-81
2023/04/17 00:13:50;;;;;;;100.10;43.57;;;7.90;99.90;;;;;;4996184;28;20045;-81
2023/04/17 00:16:16;;;;;;;103.00;43.83;;;8.00;99.90;;;;;;5015013;28;20425;-80
2023/04/17 00:18:42;;;;;;;99.97;42.73;;;8.00;99.90;;;;;;5033147;28;20099;-80
2023/04/17 00:21:08;;;;;;;102.90;44.73;;;8.00;99.90;;;;;;5003978;28;20042;-81
2023/04/17 00:23:33;;;;;;;103.67;44.57;;;7.90;99.90;;;;;;5019849;28;20117;-81
2023/04/17 00:25:59;;;;;;;102.77;43.07;;;7.90;99.90;;;;;;5009533;28;20065;-80
2023/04/17 00:28:25;;;;;;;100.57;43.80;;;8.00;99.90;;;;;;5030864;28;20041;-81
2023/04/17 00:30:50;;;;;;;92.93;42.87;;;8.00;99.90;;;;;;5021199;28;20548;-80
2023/04/17 00:33:16;;;;;;;98.97;43.43;;;8.00;99.90;;;;;;5009463;28;20042;-80
2023/04/17 00:35:42;;;;;;;99.27;45.77;;;7.90;99.90;;;;;;4998331;28;20402;-80
2023/04/17 00:38:08;;;;;;;91.60;43.93;;;8.00;99.90;;;;;;5011067;28;20037;-81
2023/04/17 00:40:34;;;;;;;99.23;43.23;;;8.00;99.90;;;;;;5011780;28;20045;-80
2023/04/17 00:43:01;;;;;;;96.07;44.17;;;8.00;99.90;;;;;;5011562;28;20045;-80
2023/04/17 00:45:27;;;;;;;91.70;43.03;;;8.00;99.90;;;;;;5025884;28;20080;-81
2023/04/17 00:47:54;;;;;;;94.63;44.50;;;8.00;99.90;;;;;;4995522;28;20049;-80
2023/04/17 00:50:20;;;;;;;92.40;44.13;;;8.00;99.90;;;;;;5004707;28;20417;-80
2023/04/17 00:52:46;;;;;;;90.47;42.67;;;8.00;99.90;;;;;;5009904;28;20057;-80
2023/04/17 00:55:13;;;;;;;85.93;42.87;;;8.00;99.90;;;;;;5022357;28;20045;-80
2023/04/17 00:57:40;;;;;;;90.17;42.40;;;8.00;99.90;;;;;;5018251;28;20382;-81
2023/04/17 01:00:08;;;;;;;86.93;42.93;;;8.00;99.90;;;;;;5010949;28;20038;-80
2023/04/17 01:02:34;;;;;;;90.40;43.50;;;8.00;99.90;;;;;;5018387;28;20053;-80
2023/04/17 01:05:00;;;;;;;87.20;42.93;;;8.00;99.90;;;;;;5007608;28;20050;-80
2023/04/17 01:07:26;;;;;;;91.97;43.37;;;8.00;99.90;;;;;;5007057;28;20042;-80
2023/04/17 01:09:53;;;;;;;87.77;41.93;;;8.10;99.90;;;;;;5016536;28;20046;-80
2023/04/17 01:12:20;;;;;;;87.90;42.77;;;8.10;99.90;;;;;;5030809;28;20049;-80
2023/04/17 01:14:48;;;;;;;86.83;43.30;;;8.00;99.90;;;;;;5001025;28;20030;-80
2023/04/17 01:17:14;;;;;;;91.20;43.53;;;8.10;99.90;;;;;;4989782;28;20125;-80
2023/04/17 01:19:40;;;;;;;93.17;43.87;;;8.10;99.90;;;;;;4997947;28;20140;-80
2023/04/17 01:22:07;;;;;;;91.60;43.07;;;8.00;99.90;;;;;;5016222;28;20069;-81
2023/04/17 01:24:32;;;;;;;91.47;44.37;;;8.10;99.90;;;;;;5003990;28;20073;-81
2023/04/17 01:26:58;;;;;;;101.10;45.00;;;8.10;99.90;;;;;;4995473;28;20145;-81
2023/04/17 01:29:24;;;;;;;95.10;45.07;;;8.00;99.90;;;;;;5002538;28;20449;-80
2023/04/17 01:31:49;;;;;;;89.50;42.90;;;8.10;99.90;;;;;;5013945;28;20041;-81
2023/04/17 01:34:15;;;;;;;100.93;45.97;;;8.00;99.90;;;;;;5000697;28;20128;-80
2023/04/17 01:36:41;;;;;;;96.30;44.03;;;8.10;99.90;;;;;;5002439;28;20046;-81
2023/04/17 01:39:07;;;;;;;93.53;43.80;;;8.00;99.90;;;;;;5022068;28;20049;-81
2023/04/17 01:41:33;;;;;;;87.27;43.20;;;8.00;99.90;;;;;;5005898;28;20041;-80
2023/04/17 01:43:58;;;;;;;95.80;44.40;;;8.10;99.90;;;;;;5013037;28;20041;-81
2023/04/17 01:46:24;;;;;;;100.47;44.80;;;8.10;99.90;;;;;;5012855;28;20073;-80
2023/04/17 01:48:50;;;;;;;96.03;43.73;;;8.10;99.90;;;;;;5014521;28;20068;-81
2023/04/17 01:51:16;;;;;;;104.43;47.47;;;8.10;99.90;;;;;;5006054;28;20042;-80
2023/04/17 01:53:41;;;;;;;105.93;47.13;;;8.10;99.90;;;;;;5008638;28;20046;-81
2023/04/17 01:56:08;;;;;;;97.20;45.03;;;8.10;99.90;;;;;;5006028;28;20508;-81
2023/04/17 01:58:34;;;;;;;93.23;43.03;;;8.10;99.90;;;;;;5024352;28;20126;-80
2023/04/17 02:01:00;;;;;;;98.80;45.57;;;8.10;99.90;;;;;;5002426;28;20060;-80
2023/04/17 02:03:25;;;;;;;101.77;44.30;;;8.10;99.90;;;;;;5008552;28;20044;-81
2023/04/17 02:05:52;;;;;;;104.13;46.30;;;8.10;99.90;;;;;;5009829;28;20045;-80
2023/04/17 02:08:18;;;;;;;103.30;47.13;;;8.10;99.90;;;;;;5019539;28;20077;-80
2023/04/17 02:10:44;;;;;;;106.50;47.47;;;8.00;99.90;;;;;;5010961;28;20081;-81
2023/04/17 02:13:10;;;;;;;106.07;47.60;;;8.00;99.90;;;;;;5010607;28;20116;-81
2023/04/17 02:15:39;;;;;;;108.13;49.17;;;8.00;99.90;;;;;;5008226;28;20029;-80
2023/04/17 02:18:05;;;;;;;107.83;48.07;;;8.10;99.90;;;;;;5031424;28;20507;-81
2023/04/17 02:20:31;;;;;;;104.80;47.17;;;8.10;99.90;;;;;;5010470;28;20519;-80
2023/04/17 02:22:59;;;;;;;106.80;48.20;;;8.10;99.90;;;;;;4989340;28;20496;-80
2023/04/17 02:25:28;;;;;;;103.63;47.77;;;8.10;99.90;;;;;;5010750;28;20046;-81
2023/04/17 02:27:55;;;;;;;108.83;48.90;;;8.00;99.90;;;;;;4991754;28;20441;-81
2023/04/17 02:30:25;;;;;;;112.20;49.87;;;8.00;99.90;;;;;;5012469;28;20104;-80
2023/04/17 02:32:52;;;;;;;116.50;50.10;;;8.00;99.90;;;;;;5000519;28;20049;-80
2023/04/17 02:35:22;;;;;;;109.87;49.23;;;8.00;99.90;;;;;;5013297;28;20103;-80
2023/04/17 02:37:48;;;;;;;112.93;50.67;;;8.00;99.90;;;;;;4998561;28;20037;-81
2023/04/17 02:40:14;;;;;;;120.67;52.13;;;8.00;99.90;;;;;;5009475;28;20037;-81
2023/04/17 02:42:40;;;;;;;117.53;50.73;;;8.00;99.90;;;;;;5003203;28;20095;-81
2023/04/17 02:45:07;;;;;;;115.20;51.40;;;8.00;99.90;;;;;;5006694;28;20041;-81
2023/04/17 02:47:32;;;;;;;117.97;50.80;;;8.00;99.90;;;;;;5016354;28;20092;-81
2023/04/17 02:50:01;;;;;;;106.80;50.37;;;8.00;99.90;;;;;;5018610;28;20552;-80
2023/04/17 02:52:28;;;;;;;111.17;51.03;;;8.00;99.90;;;;;;5030416;28;20047;-80
2023/04/17 02:54:55;;;;;;;109.47;49.33;;;8.00;99.90;;;;;;5018417;28;20053;-80
2023/04/17 02:57:24;;;;;;;117.70;50.50;;;8.00;99.90;;;;;;4993893;28;20042;-80
2023/04/17 02:59:50;;;;;;;114.40;50.40;;;8.00;99.90;;;;;;5011214;28;20038;-81
2023/04/17 03:02:20;;;;;;;118.70;52.27;;;8.00;99.90;;;;;;4996780;28;20041;-80
2023/04/17 03:04:50;;;;;;;128.83;55.70;;;8.00;99.90;;;;;;5015326;28;20037;-80
2023/04/17 03:07:22;;;;;;;119.07;53.30;;;8.00;99.90;;;;;;4995893;28;20045;-80
2023/04/17 03:09:48;;;;;;;117.78;51.33;;;8.00;99.90;;;;;;5014108;28;20045;-80
2023/04/17 03:12:15;;;;;;;130.33;55.73;;;8.00;99.90;;;;;;5006143;28;20465;-80
2023/04/17 03:14:42;;;;;;;138.27;54.43;;;8.00;99.90;;;;;;5022020;28;20401;-80
2023/04/17 03:17:09;;;;;;;119.73;52.60;;;8.00;99.90;;;;;;5018909;28;20374;-80
2023/04/17 03:19:35;;;;;;;123.87;50.77;;;8.00;99.90;;;;;;4998341;28;20038;-81
2023/04/17 03:22:01;;;;;;;152.57;53.93;;;8.00;99.90;;;;;;5008527;28;20286;-80
2023/04/17 03:24:27;;;;;;;140.40;52.27;;;7.90;99.90;;;;;;5017895;28;20033;-80
2023/04/17 03:26:52;;;;;;;170.83;55.33;;;7.90;99.90;;;;;;4996516;28;20374;-81
2023/04/17 03:29:18;;;;;;;196.53;56.63;;;7.90;99.90;;;;;;5014326;28;20054;-80
2023/04/17 03:31:44;;;;;;;165.43;53.07;;;7.80;99.90;;;;;;5011048;28;20038;-80
2023/04/17 03:34:10;;;;;;;209.53;57.37;;;7.80;99.90;;;;;;5021178;28;20037;-80
2023/04/17 03:36:35;;;;;;;198.87;56.47;;;7.80;99.90;;;;;;5012360;28;20143;-81
2023/04/17 03:39:01;;;;;;;218.30;57.00;;;7.70;99.90;;;;;;5011779;28;20064;-81
2023/04/17 03:41:27;;;;;;;186.27;55.90;;;7.70;99.90;;;;;;5005796;28;20658;-81
2023/04/17 03:43:52;;;;;;;143.07;49.90;;;7.70;99.90;;;;;;5012511;28;20048;-81
2023/04/17 03:46:18;;;;;;;165.33;56.00;;;7.70;99.90;;;;;;4999885;28;20089;-80
2023/04/17 03:48:44;;;;;;;150.10;52.50;;;7.70;99.90;;;;;;4999197;28;20046;-81
2023/04/17 03:51:10;;;;;;;145.50;52.03;;;7.70;99.90;;;;;;4994340;28;20444;-80
2023/04/17 03:53:35;;;;;;;145.77;51.33;;;7.70;99.90;;;;;;5018143;28;20054;-80
2023/04/17 03:56:01;;;;;;;149.67;51.60;;;7.70;99.90;;;;;;4980925;28;20403;-80
2023/04/17 03:58:27;;;;;;;125.47;49.63;;;7.70;99.90;;;;;;5012267;28;20044;-80
2023/04/17 04:00:57;;;;;;;136.63;49.63;;;7.70;99.90;;;;;;5012998;28;20045;-80
2023/04/17 04:03:23;;;;;;;147.40;53.53;;;7.70;99.90;;;;;;5012880;28;20045;-81
2023/04/17 04:05:49;;;;;;;139.67;51.83;;;7.70;99.90;;;;;;4994903;28;20068;-80
2023/04/17 04:08:15;;;;;;;128.00;50.43;;;7.70;99.90;;;;;;5011399;28;20545;-80
2023/04/17 04:10:43;;;;;;;127.60;47.90;;;7.70;99.90;;;;;;4994800;28;20482;-81
2023/04/17 04:13:09;;;;;;;125.30;47.60;;;7.70;99.90;;;;;;4997597;28;20042;-80
2023/04/17 04:15:35;;;;;;;148.07;50.10;;;7.70;99.90;;;;;;5026023;28;20042;-81
2023/04/17 04:18:01;;;;;;;139.37;48.87;;;7.70;99.90;;;;;;5033279;28;20503;-81
2023/04/17 04:20:27;;;;;;;161.97;52.80;;;7.70;99.90;;;;;;5010892;28;20041;-80
2023/04/17 04:22:56;;;;;;;140.33;50.03;;;7.70;99.90;;;;;;5005219;28;20055;-80
2023/04/17 04:25:22;;;;;;;125.93;47.10;;;7.70;99.90;;;;;;5010073;28;20053;-80
2023/04/17 04:27:48;;;;;;;144.80;49.57;;;7.70;99.90;;;;;;5022893;28;20056;-80
2023/04/17 04:30:19;;;;;;;155.23;51.83;;;7.70;99.90;;;;;;5002650;28;20042;-80
2023/04/17 04:32:45;;;;;;;140.27;50.43;;;7.70;99.90;;;;;;5028693;28;20779;-80
2023/04/17 04:35:12;;;;;;;134.50;49.40;;;7.70;99.90;;;;;;5011774;28;20076;-80
2023/04/17 04:37:37;;;;;;;145.00;50.93;;;7.70;99.90;;;;;;5009075;28;20587;-80
2023/04/17 04:40:09;;;;;;;131.40;49.00;;;7.70;99.90;;;;;;5027266;28;20049;-80
2023/04/17 04:42:38;;;;;;;135.68;49.85;;;7.70;99.90;;;;;;5019164;28;20042;-80
2023/04/17 04:45:05;;;;;;;132.53;49.17;;;7.60;99.90;;;;;;5032052;28;20084;-80
2023/04/17 04:47:31;;;;;;;124.40;46.80;;;7.60;99.90;;;;;;5025787;28;20385;-80
2023/04/17 04:49:57;;;;;;;111.37;46.17;;;7.60;99.90;;;;;;5024374;28;20126;-80
2023/04/17 04:52:23;;;;;;;134.50;46.53;;;7.50;99.90;;;;;;5013671;28;20045;-80
2023/04/17 04:54:49;;;;;;;127.23;46.43;;;7.50;99.90;;;;;;4997970;28;20045;-80
2023/04/17 04:57:15;;;;;;;120.37;45.97;;;7.50;99.90;;;;;;5005204;28;20037;-80
2023/04/17 04:59:40;;;;;;;161.90;49.67;;;7.50;99.90;;;;;;4999192;28;20037;-81
2023/04/17 05:02:06;;;;;;;165.90;49.70;;;7.50;99.90;;;;;;5014186;28;20052;-80
2023/04/17 05:04:32;;;;;;;162.67;48.37;;;7.50;99.90;;;;;;5028808;28;20042;-80
2023/04/17 05:06:57;;;;;;;174.00;54.17;;;7.40;99.90;;;;;;5008328;28;20489;-80
2023/04/17 05:09:23;;;;;;;132.23;47.03;;;7.40;99.90;;;;;;4993693;28;20064;-80
2023/04/17 05:11:51;;;;;;;156.37;50.20;;;7.50;99.90;;;;;;5017092;28;20393;-81
2023/04/17 05:14:17;;;;;;;131.37;44.80;;;7.40;99.90;;;;;;4984562;28;20057;-80
2023/04/17 05:16:42;;;;;;;108.87;43.70;;;7.40;99.90;;;;;;4986735;28;20466;-80
2023/04/17 05:19:08;;;;;;;132.17;46.87;;;7.40;99.90;;;;;;4998772;28;20134;-80
2023/04/17 05:21:34;;;;;;;162.33;51.97;;;7.50;99.90;;;;;;5018309;28;20128;-80
2023/04/17 05:23:59;;;;;;;154.47;45.70;;;7.50;99.90;;;;;;4987608;28;20049;-80
2023/04/17 05:26:25;;;;;;;155.90;49.50;;;7.50;99.90;;;;;;4994425;28;20037;-80
2023/04/17 05:28:51;;;;;;;154.83;49.97;;;7.50;99.90;;;;;;5001005;28;20052;-80
2023/04/17 05:31:17;;;;;;;147.70;47.33;;;7.50;99.90;;;;;;5019494;28;20030;-80
2023/04/17 05:33:42;;;;;;;149.77;44.10;;;7.50;99.90;;;;;;4976379;28;20060;-80
2023/04/17 05:36:08;;;;;;;177.90;47.57;;;7.50;99.90;;;;;;4992152;28;20041;-81
2023/04/17 05:38:34;;;;;;;211.53;50.87;;;7.40;99.90;;;;;;5020496;28;20041;-80
2023/04/17 05:41:00;;;;;;;201.83;49.87;;;7.40;99.90;;;;;;5031839;28;20459;-80
2023/04/17 05:43:26;;;;;;;160.40;44.87;;;7.30;99.90;;;;;;5018621;28;20052;-80
2023/04/17 05:45:52;;;;;;;189.77;49.80;;;7.30;99.90;;;;;;4997346;28;20129;-80
2023/04/17 05:48:18;;;;;;;263.93;56.53;;;7.40;99.90;;;;;;5019168;28;20042;-81
2023/04/17 05:50:44;;;;;;;156.43;43.17;;;7.30;99.90;;;;;;5030860;28;20049;-80
2023/04/17 05:53:10;;;;;;;173.17;46.73;;;7.40;99.90;;;;;;5008164;28;20061;-81
2023/04/17 05:55:35;;;;;;;215.07;54.17;;;7.40;99.90;;;;;;4997294;28;20125;-80
2023/04/17 05:58:01;;;;;;;185.13;49.13;;;7.40;99.90;;;;;;5016128;28;20484;-80
2023/04/17 06:00:27;;;;;;;246.53;55.30;;;7.40;99.90;;;;;;5011977;28;20041;-81
2023/04/17 06:02:53;;;;;;;276.27;56.73;;;7.40;99.90;;;;;;5009580;28;20073;-81
2023/04/17 06:05:20;;;;;;;159.37;49.17;;;7.40;99.90;;;;;;4982079;28;20084;-80
2023/04/17 06:07:46;;;;;;;190.97;52.37;;;7.40;99.90;;;;;;5000293;28;20061;-80
2023/04/17 06:10:11;;;;;;;298.23;64.80;;;7.40;99.90;;;;;;4996076;28;20065;-80
2023/04/17 06:12:37;;;;;;;172.07;49.07;;;7.50;99.90;;;;;;4994616;28;20046;-80
2023/04/17 06:15:04;;;;;;;215.03;56.83;;;7.50;99.90;;;;;;5016932;28;20037;-80
2023/04/17 06:17:30;;;;;;;213.47;57.43;;;7.50;99.90;;;;;;5018654;28;20037;-80
2023/04/17 06:19:56;;;;;;;216.50;56.67;;;7.50;99.90;;;;;;4975328;28;20037;-80
2023/04/17 06:22:21;;;;;;;193.27;53.80;;;7.60;99.90;;;;;;5014624;28;20051;-81
2023/04/17 06:24:47;;;;;;;227.90;55.00;;;7.60;99.90;;;;;;5021725;28;20139;-80
2023/04/17 06:27:13;;;;;;;171.60;54.03;;;7.60;99.90;;;;;;5013482;28;20040;-80
2023/04/17 06:29:39;;;;;;;153.43;48.40;;;7.60;99.90;;;;;;5010617;28;20073;-81
2023/04/17 06:32:05;;;;;;;149.60;51.47;;;7.60;99.90;;;;;;4973416;28;20049;-80
2023/04/17 06:34:31;;;;;;;152.73;52.07;;;7.60;99.90;;;;;;4992383;28;20038;-81
2023/04/17 06:36:58;;;;;;;149.80;53.70;;;7.70;99.90;;;;;;4992030;28;20501;-80
2023/04/17 06:39:23;;;;;;;135.90;49.77;;;7.70;99.90;;;;;;4973387;28;20333;-81
2023/04/17 06:41:49;;;;;;;155.13;52.33;;;7.70;99.90;;;;;;5011010;28;20030;-80
2023/04/17 06:44:15;;;;;;;156.63;52.30;;;7.80;99.90;;;;;;5017345;28;20037;-80
2023/04/17 06:46:41;;;;;;;144.77;52.60;;;7.80;99.90;;;;;;5012849;28;20084;-81
2023/04/17 06:49:07;;;;;;;108.27;49.03;;;7.90;99.90;;;;;;4964114;28;20034;-80
2023/04/17 06:51:32;;;;;;;141.40;50.83;;;7.90;99.90;;;;;;5015933;28;20041;-80
2023/04/17 06:53:58;;;;;;;123.23;49.70;;;7.90;99.90;;;;;;4993754;28;20149;-81
2023/04/17 06:56:24;;;;;;;122.70;50.23;;;8.00;99.90;;;;;;5005613;28;20063;-80
2023/04/17 06:58:51;;;;;;;109.90;46.43;;;8.00;99.90;;;;;;5003241;28;20135;-80
2023/04/17 07:01:17;;;;;;;107.77;47.67;;;8.10;99.90;;;;;;5013508;28;20109;-80
2023/04/17 07:03:43;;;;;;;109.10;47.53;;;8.10;99.90;;;;;;4999240;28;20137;-80
2023/04/17 07:06:09;;;;;;;93.80;46.13;;;8.20;99.90;;;;;;4987439;28;20050;-81
2023/04/17 07:08:35;;;;;;;96.77;45.17;;;8.20;99.90;;;;;;5003494;28;20056;-81
2023/04/17 07:11:01;;;;;;;93.37;44.60;;;8.30;99.90;;;;;;5007167;28;20049;-80
2023/04/17 07:13:30;;;;;;;90.90;45.87;;;8.30;99.90;;;;;;5004097;28;20049;-81
2023/04/17 07:15:57;;;;;;;86.43;43.47;;;8.40;99.90;;;;;;4956701;28;20034;-81
2023/04/17 07:18:28;;;;;;;82.03;41.67;;;8.50;99.90;;;;;;5003837;28;20041;-81
2023/04/17 07:20:54;;;;;;;78.77;43.20;;;8.50;99.90;;;;;;5003211;28;20050;-81
2023/04/17 07:23:20;;;;;;;79.87;41.90;;;8.70;99.90;;;;;;5003985;28;20045;-81
2023/04/17 07:25:46;;;;;;;75.47;41.60;;;8.70;99.90;;;;;;5003405;28;20045;-81
2023/04/17 07:28:11;;;;;;;77.37;42.43;;;8.80;99.90;;;;;;4987376;28;20526;-81
2023/04/17 07:30:37;;;;;;;77.77;43.47;;;8.90;99.90;;;;;;5003079;28;20048;-81
2023/04/17 07:33:03;;;;;;;78.00;42.00;;;9.10;99.90;;;;;;4955215;28;20044;-81
2023/04/17 07:35:29;;;;;;;77.53;42.97;;;9.20;99.90;;;;;;5003501;28;20041;-82
2023/04/17 07:37:56;;;;;;;70.90;39.73;;;9.30;99.90;;;;;;5003853;28;20100;-80
2023/04/17 07:40:22;;;;;;;69.20;40.53;;;9.40;99.90;;;;;;5003108;28;20048;-81
2023/04/17 07:42:48;;;;;;;65.80;38.17;;;9.50;99.90;;;;;;4985385;28;20449;-80
2023/04/17 07:45:13;;;;;;;62.50;37.67;;;9.60;99.90;;;;;;4986566;28;20048;-81
2023/04/17 07:47:39;;;;;;;64.80;39.50;;;9.70;99.90;;;;;;5004780;28;20034;-80
2023/04/17 07:50:05;;;;;;;61.20;38.30;;;9.80;99.90;;;;;;4973355;28;20048;-80
2023/04/17 07:52:31;;;;;;;61.90;37.90;;;9.90;99.90;;;;;;5006356;28;20054;-81
2023/04/17 07:54:57;;;;;;;65.50;36.90;;;10.10;99.90;;;;;;4973918;28;20120;-81
2023/04/17 07:57:25;;;;;;;61.67;38.07;;;10.20;99.90;;;;;;4990870;28;20034;-81
2023/04/17 07:59:52;;;;;;;59.73;35.80;;;10.20;99.90;;;;;;5004422;28;20400;-81
2023/04/17 08:02:18;;;;;;;59.40;36.53;;;10.20;99.90;;;;;;5007094;28;20397;-81
2023/04/17 08:04:45;;;;;;;56.87;35.93;;;10.40;99.90;;;;;;5021766;28;20042;-80
2023/04/17 08:07:11;;;;;;;57.97;35.17;;;10.50;99.90;;;;;;4990782;28;20034;-81
2023/04/17 08:09:37;;;;;;;51.80;34.50;;;10.50;99.90;;;;;;5006721;28;20498;-82
2023/04/17 08:12:04;;;;;;;50.57;33.17;;;10.40;99.90;;;;;;4990355;28;20421;-82
2023/04/17 08:14:30;;;;;;;52.70;34.13;;;10.40;99.90;;;;;;4990043;28;20545;-81
2023/04/17 08:16:56;;;;;;;51.20;34.43;;;10.40;99.90;;;;;;4989455;28;20125;-81
2023/04/17 08:19:22;;;;;;;55.73;35.53;;;10.40;99.90;;;;;;5018112;28;20120;-81
2023/04/17 08:21:48;;;;;;;55.57;33.53;;;10.50;99.90;;;;;;5006649;28;20153;-81
2023/04/17 08:24:14;;;;;;;50.37;34.80;;;10.60;99.90;;;;;;5006787;28;20046;-82
2023/04/17 08:26:40;;;;;;;47.13;33.13;;;10.60;99.90;;;;;;4990348;28;20055;-82
2023/04/17 08:29:06;;;;;;;46.87;32.10;;;10.70;99.90;;;;;;4990669;28;20925;-81
2023/04/17 08:31:33;;;;;;;50.00;32.60;;;10.70;99.90;;;;;;5006202;28;20042;-81
2023/04/17 08:34:01;;;;;;;45.70;31.47;;;10.80;99.90;;;;;;5006284;28;20054;-81
2023/04/17 08:36:27;;;;;;;46.40;32.40;;;10.80;99.90;;;;;;4989713;28;20041;-81
2023/04/17 08:38:53;;;;;;;45.77;32.47;;;10.80;99.90;;;;;;4989619;28;20125;-81
2023/04/17 08:41:21;;;;;;;43.13;31.40;;;10.90;99.90;;;;;;5006900;28;20049;-81
2023/04/17 08:43:52;;;;;;;46.77;33.03;;;11.00;99.90;;;;;;5006929;28;20042;-80
2023/04/17 08:46:21;;;;;;;43.60;31.40;;;11.10;99.90;;;;;;5006614;28;20073;-81
2023/04/17 08:48:46;;;;;;;47.77;31.60;;;11.10;99.90;;;;;;5006668;28;20547;-80
2023/04/17 08:51:13;;;;;;;46.93;32.67;;;11.20;99.90;;;;;;5006040;28;20050;-80
2023/04/17 08:53:38;;;;;;;43.10;30.77;;;11.30;99.90;;;;;;5006402;28;20165;-80
2023/04/17 08:56:05;;;;;;;43.27;31.00;;;11.30;99.90;;;;;;5006436;28;20128;-80
2023/04/17 08:58:32;;;;;;;44.97;30.83;;;11.40;99.90;;;;;;5006590;28;20042;-80
2023/04/17 09:01:08;;;;;;;39.83;29.40;;;11.60;99.90;;;;;;5005961;28;20038;-80
2023/04/17 09:03:42;;;;;;;39.73;28.80;;;11.70;99.90;;;;;;5006869;28;20057;-80
2023/04/17 09:06:09;;;;;;;37.13;28.50;;;11.70;99.90;;;;;;4988672;28;20037;-81
2023/04/17 09:08:36;;;;;;;41.17;28.77;;;11.80;99.90;;;;;;5005693;28;20037;-81
2023/04/17 09:11:01;;;;;;;40.70;30.63;;;11.90;99.90;;;;;;5005961;28;20092;-81
2023/04/17 09:13:29;;;;;;;38.38;29.42;;;12.00;99.90;;;;;;4989366;28;20046;-81
2023/04/17 09:16:12;;;;;;;39.75;29.67;;;12.00;99.90;;;;;;5005733;28;20494;-81
2023/04/17 09:18:41;;;;;;;39.85;29.95;;;12.00;99.90;;;;;;5007177;28;20065;-80
2023/04/17 09:21:07;;;;;;;38.75;28.30;;;12.00;99.90;;;;;;5006147;28;20108;-81
2023/04/17 09:23:50;;;;;;;40.92;30.33;;;12.10;99.90;;;;;;5006108;28;20041;-80
2023/04/17 09:26:19;;;;;;;37.55;27.85;;;12.10;99.90;;;;;;5005233;28;20044;-80
2023/04/17 09:29:09;;;;;;;36.03;28.20;;;12.10;99.90;;;;;;5005115;28;20038;-80
2023/04/17 09:31:37;;;;;;;35.92;26.00;;;12.10;99.90;;;;;;5005373;28;20038;-80
2023/04/17 09:34:09;;;;;;;35.25;27.48;;;12.20;99.90;;;;;;4988725;28;20081;-81
2023/04/17 09:36:37;;;;;;;34.55;27.20;;;12.30;99.90;;;;;;4988796;28;20080;-81
2023/04/17 09:39:16;;;;;;;36.50;27.35;;;12.40;99.90;;;;;;5005513;28;20899;-81
2023/04/17 09:41:42;;;;;;;35.63;26.58;;;12.50;99.90;;;;;;5004355;28;20057;-81
2023/04/17 09:44:08;;;;;;;32.05;24.13;;;12.60;99.90;;;;;;5004128;28;20050;-81
2023/04/17 09:46:37;;;;;;;31.50;23.20;;;12.60;99.90;;;;;;5004773;28;20081;-80
2023/04/17 09:49:32;;;;;;;29.92;22.30;;;12.70;99.90;;;;;;5004559;28;20068;-80
2023/04/17 09:51:58;;;;;;;32.45;22.45;;;12.70;99.90;;;;;;4999896;28;20072;-81
2023/04/17 09:54:25;;;;;;;28.92;22.17;;;12.90;99.90;;;;;;4987651;28;20054;-81
2023/04/17 09:56:54;;;;;;;29.98;22.25;;;13.10;99.90;;;;;;5005169;28;20443;-81
2023/04/17 09:59:22;;;;;;;28.85;21.75;;;13.10;99.90;;;;;;5005044;28;20556;-81
2023/04/17 10:01:49;;;;;;;28.38;21.73;;;13.10;99.90;;;;;;5002305;28;20513;-81
2023/04/17 10:04:14;;;;;;;27.40;20.95;;;13.10;99.90;;;;;;4988795;28;20405;-81
2023/04/17 10:06:40;;;;;;;25.67;20.20;;;13.20;99.90;;;;;;4989231;28;20064;-80
2023/04/17 10:09:07;;;;;;;26.25;20.58;;;13.40;99.90;;;;;;5002241;28;20505;-81
2023/04/17 10:11:44;;;;;;;26.55;21.13;;;13.40;99.90;;;;;;5003875;28;20045;-81
2023/04/17 10:14:27;;;;;;;26.20;21.23;;;13.50;99.90;;;;;;5004085;28;20096;-80
2023/04/17 10:16:53;;;;;;;28.73;21.13;;;13.70;99.90;;;;;;5004826;28;20041;-82
2023/04/17 10:19:26;;;;;;;26.60;20.35;;;13.90;99.90;;;;;;5004709;28;20053;-80
2023/04/17 10:22:14;;;;;;;26.10;20.73;;;14.10;99.90;;;;;;5004983;28;20057;-81
2023/04/17 10:24:40;;;;;;;25.45;19.70;;;13.90;99.90;;;;;;5003900;28;20030;-80
2023/04/17 10:27:26;;;;;;;24.20;19.35;;;13.90;99.90;;;;;;5004312;28;20030;-80
2023/04/17 10:29:56;;;;;;;26.45;20.88;;;14.00;99.90;;;;;;4987955;28;20540;-81
2023/04/17 10:32:24;;;;;;;26.92;19.63;;;14.00;99.90;;;;;;5004424;28;20076;-80
2023/04/17 10:35:00;;;;;;;23.23;18.38;;;14.00;99.90;;;;;;5004941;28;20044;-81
2023/04/17 10:37:51;;;;;;;22.00;18.83;;;14.00;99.90;;;;;;5003698;28;20042;-81
2023/04/17 10:40:21;;;;;;;24.77;18.25;;;14.00;99.90;;;;;;5004695;28;20060;-81
2023/04/17 10:43:06;;;;;;;23.55;18.60;;;14.00;99.90;;;;;;4988072;28;20483;-81
2023/04/17 10:46:00;;;;;;;24.40;18.88;;;13.90;99.90;;;;;;5004929;28;20501;-82
2023/04/17 10:48:35;;;;;;;25.35;19.27;;;14.20;99.90;;;;;;5004847;28;20454;-81
2023/04/17 10:51:22;;;;;;;22.33;16.45;;;14.30;99.90;;;;;;5020828;28;20050;-82
2023/04/17 10:54:08;;;;;;;22.17;17.02;;;14.30;99.90;;;;;;5004239;28;20128;-81
2023/04/17 10:56:47;;;;;;;25.02;19.55;;;14.50;99.90;;;;;;5003962;28;20050;-81
2023/04/17 10:59:15;;;;;;;23.45;17.55;;;14.70;99.90;;;;;;5003793;28;20041;-81
2023/04/17 11:01:46;;;;;;;21.67;17.33;;;14.90;99.90;;;;;;4971434;28;20038;-81
2023/04/17 11:04:32;;;;;;;19.65;16.77;;;15.20;99.90;;;;;;4986310;28;20050;-81
2023/04/17 11:06:59;;;;;;;21.52;16.55;;;15.20;99.90;;;;;;4986416;28;20509;-81
2023/04/17 11:09:27;;;;;;;20.13;16.70;;;14.90;99.90;;;;;;4986584;28;20076;-80
2023/04/17 11:11:57;;;;;;;18.90;16.70;;;14.80;99.90;;;;;;4987826;28;20394;-80
2023/04/17 11:14:22;;;;;;;20.08;17.77;;;14.80;99.90;;;;;;4987061;28;20030;-81
2023/04/17 11:16:49;;;;;;;20.77;16.75;;;14.80;99.90;;;;;;4987624;28;20037;-81
2023/04/17 11:19:20;;;;;;;22.17;16.38;;;14.90;99.90;;;;;;5020008;28;20100;-81
2023/04/17 11:21:52;;;;;;;20.23;16.35;;;15.10;99.90;;;;;;4987286;28;20397;-81
2023/04/17 11:24:29;;;;;;;19.95;16.95;;;15.10;99.90;;;;;;4991710;28;20084;-81
2023/04/17 11:26:58;;;;;;;19.90;16.45;;;15.20;99.90;;;;;;5007223;28;20088;-81
2023/04/17 11:29:25;;;;;;;18.73;15.35;;;15.40;99.90;;;;;;5008221;28;20116;-82
2023/04/17 11:31:52;;;;;;;17.05;15.23;;;15.50;99.90;;;;;;5007398;28;20092;-81
2023/04/17 11:34:19;;;;;;;18.60;15.40;;;15.60;99.90;;;;;;4989479;28;20084;-81
2023/04/17 11:36:59;;;;;;;20.45;15.57;;;15.60;99.90;;;;;;5006483;28;20050;-81
2023/04/17 11:39:29;;;;;;;20.60;16.40;;;15.50;99.90;;;;;;5007767;28;20065;-81
2023/04/17 11:41:58;;;;;;;22.30;17.80;;;15.30;99.90;;;;;;5007132;28;20673;-81
2023/04/17 11:44:24;;;;;;;21.25;17.08;;;15.20;99.90;;;;;;4991511;28;20184;-81
2023/04/17 11:46:55;;;;;;;21.63;16.73;;;15.20;99.90;;;;;;5006764;28;20486;-80
2023/04/17 11:49:26;;;;;;;18.50;16.15;;;15.30;99.90;;;;;;5006820;28;20042;-81
2023/04/17 11:51:55;;;;;;;20.52;17.15;;;15.30;99.90;;;;;;4990543;28;20525;-82
2023/04/17 11:54:24;;;;;;;17.73;15.77;;;15.40;99.90;;;;;;5006731;28;20063;-80
2023/04/17 11:57:17;;;;;;;18.02;15.52;;;15.50;99.90;;;;;;5006765;28;20069;-82
2023/04/17 11:59:44;;;;;;;21.67;17.23;;;15.70;99.90;;;;;;5000580;28;20128;-80
2023/04/17 12:02:11;;;;;;;21.95;17.10;;;15.60;99.90;;;;;;4991056;28;20076;-80
2023/04/17 12:04:38;;;;;;;21.38;17.67;;;15.80;99.90;;;;;;5006188;28;20116;-80
2023/04/17 12:07:05;;;;;;;20.42;17.60;;;15.70;99.90;;;;;;5007244;28;20080;-81
2023/04/17 12:09:32;;;;;;;20.20;16.85;;;15.70;99.90;;;;;;4990225;28;20050;-80
2023/04/17 12:12:00;;;;;;;20.58;16.42;;;15.70;99.90;;;;;;4990747;28;20064;-79
2023/04/17 12:14:26;;;;;;;21.83;17.05;;;15.70;99.90;;;;;;5007007;28;20479;-82
2023/04/17 12:16:51;;;;;;;20.70;17.13;;;15.70;99.90;;;;;;4990503;28;20123;-80
2023/04/17 12:19:20;;;;;;;18.40;16.42;;;15.80;99.90;;;;;;5006650;28;20130;-81
2023/04/17 12:21:46;;;;;;;19.15;16.75;;;15.80;99.90;;;;;;4992972;28;20037;-81
2023/04/17 12:24:13;;;;;;;21.20;17.15;;;15.80;99.90;;;;;;4974482;28;20049;-80
2023/04/17 12:26:46;;;;;;;19.02;15.65;;;15.70;99.90;;;;;;5006827;28;20050;-81
2023/04/17 12:29:12;;;;;;;19.70;16.38;;;15.80;99.90;;;;;;5005816;28;20057;-81
2023/04/17 12:31:38;;;;;;;20.92;17.15;;;15.90;99.90;;;;;;4990156;28;20041;-81